Redwood National Park, CA

01:49 PM PST die 25o November, anno 2014 (GMT -0800)
Arcata | Change Station
CLOSE
Current Station
Airport
Location: Arcata,
Elevation: 217 ft
Nearby Weather Stations

Elev 217 ft 40.98 °N, 124.10 °W | Updated 56 minutes ago

Serena
Serena
60 °F
Feels Like 60 °F
N
5
Ventus Variabilis Ventus from Inter Aquilonem et Zephyrus

Hodie
High -- | Low -- °F
--% Chance of Precip.
Yesterday
High -- | Low -- °F
Precip. -- in
7:15 AM 4:51 PM
Waxing Crescent, 14% visible
Pressio 30.43 in
Visibilitas 9.0 milia passuum
Clouds Serena
Frigus in quo Ros apparet 52 °F
Umor 75%
Rainfall 0.00 in
Snow Depth Not available.
UV 3 out of 12
Pollen 1.30 out of 12
Air Quality Not available.
Flu Activity Not available.
METAR KACV 252053Z AUTO 31004KT 9SM CLR 16/11 A3041 RMK AO2 SLP302 T01560111 58014

More Conditions Fewer Conditions

Pressio 30.43 in
Visibilitas 9.0 milia passuum
Clouds Serena
Frigus in quo Ros apparet 52 °F
Umor 75%
Rainfall 0.00 in
Snow Depth Not available.
UV 3 out of 12
Pollen 1.30 out of 12
Air Quality Not available.
Flu Activity Not available.
METAR KACV 252053Z AUTO 31004KT 9SM CLR 16/11 A3041 RMK AO2 SLP302 T01560111 58014

More Conditions Fewer Conditions

10-Day Weather Forecast

Almanac

Astronomy

Nov. 25, 2014 Rise Set
Actual Time
Civil Twilight
Nautical Twilight
Astronomical Twilight
Moon
Length Of Visible Light
Length of Day
Tomorrow will be .
, % of the Moon is Illuminated

Today's Extremes

State Highs State Lows

Community

WunderPhotos

Upload Photos

1,773,599 photos uploaded!

WunderBlogs® & News

Nearby

Air Quality

  Air Quality AQ Index Pollutant
Not available.

Snow Depth

Station Depth Elevation

Earthquake Activity

City Distance Mag. Time & Date
Minimum magnitude displayed is 2.5.

Coastal Water Temperatures

Locus Calor

Nearby Weather Stations